Bentonville, AR

11:02 PM CDT on May 24, 2015 (GMT -0500)
Blueberry Heights | | Change Station
CLOSE
Current Station
Personal Weather Station
Location: Bentonville, AR
Elevation: 1306 ft
Nearby Weather Stations

Elev 1306 ft 36.38 °N, 94.18 °W | Updated 15 days ago

Cloudy
Cloudy
62 °F
Feels Like 62 °F
N
5
Wind Variable Wind from SW
Gusts mph

Today
High -- | Low -- °F
--% Chance of Precip.
Yesterday
High -- | Low -- °F
Precip. -- in
6:04 AM 8:23 PM
Waxing Crescent, 45% visible
Pressure 29.93 in
Visibility 10.0 miles
Clouds Scattered Clouds 600 ft
Mostly Cloudy 1500 ft
Mostly Cloudy 2100 ft
Dew Point 59 °F
Humidity 92%
Rainfall in
Snow Depth Not available.
UV 0 out of 12
Pollen .90 out of 12
Air Quality Not available.
Flu Activity No Activity
METAR KVBT 250355Z AUTO 23007KT 10SM SCT006 BKN015 BKN021 17/15 A2993 RMK AO1

More Conditions Fewer Conditions

Pressure 29.93 in
Visibility 10.0 miles
Clouds Scattered Clouds 600 ft
Mostly Cloudy 1500 ft
Mostly Cloudy 2100 ft
Dew Point 59 °F
Humidity 92%
Rainfall in
Snow Depth Not available.
UV 0 out of 12
Pollen .90 out of 12
Air Quality Not available.
Flu Activity No Activity
METAR KVBT 250355Z AUTO 23007KT 10SM SCT006 BKN015 BKN021 17/15 A2993 RMK AO1

More Conditions Fewer Conditions

Nowcast | as of 9:00 PM CDT on May 24, 2015

At 9:00 PM...Doppler radars indicated scattered showers ongoing across northeast Oklahoma and far northwest Arkansas. This activity continues to lift northeast at around 35 mph. Through 10:45 PM...occasional showers will be possible for locations along and to the north of a Ralston Oklahoma to Winslow Arkansas line. Average hourly rainfall of up to one tenth of an inch will remain common...with locally higher amounts to near one quarter inch possible in heavier downpours. This activity will continue to gradually decrease in coverage as it lifts north. No severe weather is expected from these showers... however brief non tornadic funnels may appear briefly at times over the far northeast corner of Oklahoma.

×

10-Day Weather Forecast

Almanac

Astronomy

May. 24, 2015 Rise Set
Actual Time
Civil Twilight
Nautical Twilight
Astronomical Twilight
Moon
Length of Visible Light
Length of Day
Tomorrow will be .
, % of the Moon is Illuminated

Today's Extremes

State Highs State Lows

Community

WunderPhotos

Upload Photos

1,823,950 photos uploaded!

WunderBlogs® & News

Nearby

Air Quality

  Air Quality AQ Index Pollutant
Not available.

Snow Depth

Station Depth Elevation

Earthquake Activity

City Distance Mag. Time & Date
Minimum magnitude displayed is 2.5.

Coastal Water Temperatures

Place Temperature

Stations

Nearby Weather Stations

Station Location Temp. Windchill Dew Point Humidity Wind Precip. Elev Updated Type